Time;durP1;ratioP1;P1;durP2;ratioP2;P2;SDS_P1;SDS_P2;PMS_P1;PMS_P2;Temp;Humidity;BMP_temperature;BMP_pressure;BME280_temperature;BME280_humidity;BME280_pressure;Samples;Min_cycle;Max_cycle;Signal;HPM_P1;HPM_P2
2021/12/22 00:02:15;;;;;;;5.88;4.93;;;-0.20;99.90;;;;;;7386913;19;20328;-82
2021/12/22 00:04:46;;;;;;;7.07;4.78;;;-0.20;99.90;;;;;;7393185;19;20312;-81
2021/12/22 00:07:12;;;;;;;5.10;4.45;;;-0.20;99.90;;;;;;7389226;19;20865;-81
2021/12/22 00:09:38;;;;;;;7.15;4.35;;;-0.20;99.90;;;;;;7393707;19;20338;-81
2021/12/22 00:12:04;;;;;;;4.43;4.03;;;-0.10;99.90;;;;;;7394525;19;20308;-81
2021/12/22 00:14:29;;;;;;;4.78;4.28;;;0.00;99.90;;;;;;7392415;19;20345;-82
2021/12/22 00:16:55;;;;;;;6.33;4.67;;;0.10;99.90;;;;;;7392851;19;20337;-80
2021/12/22 00:19:21;;;;;;;5.15;4.65;;;0.00;99.90;;;;;;7369676;19;20304;-81
2021/12/22 00:21:46;;;;;;;5.38;4.25;;;0.00;99.90;;;;;;7391868;19;20325;-80
2021/12/22 00:24:12;;;;;;;6.27;4.50;;;-0.10;99.90;;;;;;7392688;19;20304;-80
2021/12/22 00:26:37;;;;;;;6.00;5.40;;;-0.10;99.90;;;;;;7392861;19;20308;-81
2021/12/22 00:29:04;;;;;;;5.43;4.83;;;-0.20;99.90;;;;;;7394518;19;20368;-81
2021/12/22 00:31:30;;;;;;;5.67;4.50;;;-0.30;99.90;;;;;;7405125;19;20321;-80
2021/12/22 00:33:57;;;;;;;5.70;5.10;;;-0.30;99.90;;;;;;7403764;19;20327;-80
2021/12/22 00:36:25;;;;;;;5.13;3.85;;;-0.30;99.90;;;;;;7391421;19;20710;-82
2021/12/22 00:38:51;;;;;;;5.38;4.22;;;-0.20;99.90;;;;;;7397260;19;20332;-81
2021/12/22 00:41:17;;;;;;;5.32;4.45;;;-0.20;99.90;;;;;;7398140;19;20332;-82
2021/12/22 00:43:43;;;;;;;5.50;5.00;;;-0.20;99.90;;;;;;7396779;19;20320;-81
2021/12/22 00:46:09;;;;;;;5.00;4.40;;;-0.30;99.90;;;;;;7394060;19;20300;-80
2021/12/22 00:48:34;;;;;;;4.53;4.13;;;-0.30;99.90;;;;;;7395886;19;20333;-81
2021/12/22 00:51:00;;;;;;;5.38;4.88;;;-0.20;99.90;;;;;;7391894;19;20307;-80
2021/12/22 00:53:27;;;;;;;4.82;4.43;;;-0.20;99.90;;;;;;7392638;19;20346;-84
2021/12/22 00:55:53;;;;;;;5.35;4.78;;;-0.20;99.90;;;;;;7390982;19;20349;-79
2021/12/22 00:58:20;;;;;;;5.97;4.55;;;-0.20;99.90;;;;;;7381426;19;20301;-82
2021/12/22 01:00:47;;;;;;;4.70;4.18;;;-0.10;99.90;;;;;;7384586;19;20328;-81
2021/12/22 01:03:14;;;;;;;6.40;5.70;;;0.00;99.90;;;;;;7391713;19;20400;-80
2021/12/22 01:05:40;;;;;;;5.68;4.85;;;0.00;99.90;;;;;;7391493;19;20305;-79
2021/12/22 01:08:06;;;;;;;4.65;4.25;;;-0.10;99.90;;;;;;7391185;19;20313;-82
2021/12/22 01:10:32;;;;;;;4.60;4.20;;;-0.10;99.90;;;;;;7390236;19;20615;-81
2021/12/22 01:12:59;;;;;;;4.82;4.43;;;0.00;99.90;;;;;;7390585;19;20337;-80
2021/12/22 01:15:26;;;;;;;4.88;4.40;;;0.10;99.90;;;;;;7386983;19;20368;-81
2021/12/22 01:18:00;;;;;;;5.13;4.43;;;0.10;99.90;;;;;;7390658;19;20308;-81
2021/12/22 01:20:31;;;;;;;4.75;4.35;;;0.20;99.90;;;;;;7385821;19;20324;-81
2021/12/22 01:23:05;;;;;;;5.50;4.35;;;0.20;99.90;;;;;;7369937;19;20311;-80
2021/12/22 01:25:36;;;;;;;5.25;4.75;;;0.20;99.90;;;;;;7288068;19;2005490;-80
2021/12/22 01:28:02;;;;;;;5.90;5.40;;;0.20;99.90;;;;;;7388618;19;20313;-80
2021/12/22 01:30:29;;;;;;;5.10;4.60;;;0.10;99.90;;;;;;7388901;19;20379;-81
2021/12/22 01:32:57;;;;;;;5.25;4.75;;;0.00;99.90;;;;;;7391664;19;20385;-79
2021/12/22 01:35:25;;;;;;;5.30;4.80;;;0.00;99.90;;;;;;7389422;19;20336;-81
2021/12/22 01:37:51;;;;;;;5.87;5.27;;;0.00;99.90;;;;;;7390851;19;20332;-81
2021/12/22 01:40:17;;;;;;;5.23;4.73;;;-0.10;99.90;;;;;;7387657;19;20320;-80
2021/12/22 01:42:43;;;;;;;4.53;4.13;;;-0.10;99.90;;;;;;7390809;19;20866;-81
2021/12/22 01:45:56;;;;;;;4.40;4.00;;;-0.10;99.90;;;;;;7389248;19;20724;-81
2021/12/22 01:49:10;;;;;;;4.78;4.30;;;0.00;99.90;;;;;;7286167;19;2006558;-81
2021/12/22 01:51:49;;;;;;;4.75;4.25;;;0.10;99.90;;;;;;7289688;19;2005974;-79
2021/12/22 01:54:23;;;;;;;5.67;4.50;;;0.10;99.90;;;;;;7387840;19;20842;-81
2021/12/22 01:56:51;;;;;;;4.90;4.00;;;0.10;99.90;;;;;;7366302;19;20339;-80
2021/12/22 01:59:16;;;;;;;4.85;4.40;;;0.20;99.90;;;;;;7391299;19;20316;-81
2021/12/22 02:01:42;;;;;;;6.00;5.38;;;0.10;99.90;;;;;;7396038;19;20315;-81
2021/12/22 02:04:13;;;;;;;5.22;4.72;;;0.10;99.90;;;;;;7395068;19;20320;-80
2021/12/22 02:06:43;;;;;;;5.20;4.68;;;0.00;99.90;;;;;;7393914;19;20420;-82
2021/12/22 02:09:10;;;;;;;4.87;4.33;;;-0.20;99.90;;;;;;7391370;19;20305;-81
2021/12/22 02:11:36;;;;;;;6.03;5.18;;;-0.10;99.90;;;;;;7389953;19;20866;-82
2021/12/22 02:14:05;;;;;;;6.05;5.18;;;-0.10;99.90;;;;;;7389884;19;20312;-81
2021/12/22 02:16:34;;;;;;;5.55;5.05;;;-0.20;99.90;;;;;;7388926;19;20343;-82
2021/12/22 02:19:01;;;;;;;6.13;5.35;;;-0.20;99.90;;;;;;7389097;19;20725;-79
2021/12/22 02:21:30;;;;;;;7.88;5.50;;;-0.20;99.90;;;;;;7387537;19;20312;-82
2021/12/22 02:23:56;;;;;;;6.45;5.78;;;-0.20;99.90;;;;;;7386940;19;20308;-79
2021/12/22 02:26:49;;;;;;;6.93;5.63;;;-0.30;99.90;;;;;;7387255;19;20303;-80
2021/12/22 02:29:19;;;;;;;6.95;6.25;;;-0.30;99.90;;;;;;7285620;19;2008765;-82
2021/12/22 02:32:03;;;;;;;5.43;4.95;;;-0.30;99.90;;;;;;7287868;19;2004645;-80
2021/12/22 02:34:40;;;;;;;5.80;5.28;;;-0.40;99.90;;;;;;7284939;19;2004412;-82
2021/12/22 02:37:26;;;;;;;5.68;5.07;;;-0.40;99.90;;;;;;7390479;19;20316;-81
2021/12/22 02:39:59;;;;;;;5.70;5.20;;;-0.30;99.90;;;;;;7388701;19;20312;-80
2021/12/22 02:42:30;;;;;;;5.78;5.28;;;-0.30;99.90;;;;;;7368352;19;20305;-81
2021/12/22 02:45:13;;;;;;;7.40;6.45;;;-0.40;99.90;;;;;;7379389;19;20644;-81
2021/12/22 02:47:43;;;;;;;5.97;5.00;;;-0.40;99.90;;;;;;7385247;19;20319;-80
2021/12/22 02:50:10;;;;;;;5.47;4.85;;;-0.50;99.90;;;;;;7370735;19;20309;-81
2021/12/22 02:52:49;;;;;;;5.23;4.83;;;-0.50;99.90;;;;;;7385586;19;20322;-80
2021/12/22 02:55:16;;;;;;;5.10;4.57;;;-0.50;99.90;;;;;;7388003;19;20324;-81
2021/12/22 02:57:48;;;;;;;5.90;5.00;;;-0.50;99.90;;;;;;7384622;19;20316;-81
2021/12/22 03:03:17;;;;;;;5.47;4.97;;;-0.40;99.90;;;;;;7388328;19;20320;-80
2021/12/22 03:05:47;;;;;;;5.10;4.60;;;-0.40;99.90;;;;;;7388388;19;20349;-80
2021/12/22 03:08:13;;;;;;;8.93;5.23;;;-0.60;99.90;;;;;;7389492;19;20336;-80
2021/12/22 03:10:41;;;;;;;5.50;5.00;;;-0.70;99.90;;;;;;7395084;19;20312;-81
2021/12/22 03:13:08;;;;;;;5.22;4.72;;;-0.80;99.90;;;;;;7395718;19;20308;-80
2021/12/22 03:15:35;;;;;;;5.87;5.27;;;-0.90;99.90;;;;;;7394721;19;20345;-79
2021/12/22 03:18:10;;;;;;;6.55;5.88;;;-0.90;99.90;;;;;;7393027;19;20411;-81
2021/12/22 03:20:36;;;;;;;5.35;4.80;;;-1.10;99.90;;;;;;7395658;19;20330;-80
2021/12/22 03:23:13;;;;;;;5.30;4.47;;;-1.20;99.90;;;;;;7285266;19;2006188;-81
2021/12/22 03:25:40;;;;;;;6.22;5.10;;;-1.20;99.90;;;;;;7394183;19;20364;-81
2021/12/22 03:28:40;;;;;;;5.00;4.50;;;-1.30;99.90;;;;;;7393265;19;20862;-83
2021/12/22 03:31:48;;;;;;;5.30;4.80;;;-1.30;99.90;;;;;;7290842;19;20315;-81
2021/12/22 03:34:40;;;;;;;5.32;4.72;;;-1.40;99.90;;;;;;7211015;19;2004035;-81
2021/12/22 03:37:28;;;;;;;5.15;4.43;;;-1.40;99.90;;;;;;7364775;19;20305;-80
2021/12/22 03:40:19;;;;;;;5.35;4.82;;;-1.30;99.90;;;;;;7251526;19;2004441;-81
2021/12/22 03:43:35;;;;;;;5.88;5.20;;;-1.50;99.90;;;;;;7217531;19;2004542;-81
2021/12/22 03:46:26;;;;;;;5.32;4.82;;;-1.60;99.90;;;;;;7187168;19;20432;-80
2021/12/22 03:50:16;;;;;;;5.03;4.53;;;-1.70;99.90;;;;;;7247300;19;20325;-82
2021/12/22 04:07:33;;;;;;;6.45;5.68;;;-2.10;99.90;;;;;;7178522;19;2004364;-80
2021/12/22 04:10:42;;;;;;;5.53;4.82;;;-2.00;99.90;;;;;;7346538;19;20385;-80
2021/12/22 04:48:16;;;;;;;8.15;5.80;;;-2.30;99.90;;;;;;7333139;19;20309;-79
2021/12/22 04:50:42;;;;;;;5.03;4.55;;;-2.50;99.90;;;;;;7387957;19;20400;-78
2021/12/22 04:53:21;;;;;;;6.75;5.30;;;-2.70;99.90;;;;;;7389004;19;20340;-80
2021/12/22 05:02:54;;;;;;;6.05;5.45;;;-2.40;99.90;;;;;;7377646;19;20316;-79
2021/12/22 05:06:04;;;;;;;5.78;5.10;;;-2.50;99.90;;;;;;7397938;19;20349;-83
2021/12/22 05:09:23;;;;;;;6.38;5.32;;;-2.40;99.90;;;;;;7399896;19;20343;-82
2021/12/22 05:15:52;;;;;;;5.60;5.10;;;-2.40;99.90;;;;;;7397593;19;20351;-82
2021/12/22 05:19:30;;;;;;;7.85;6.35;;;-2.50;99.90;;;;;;7399394;19;20412;-82
2021/12/22 05:22:57;;;;;;;7.32;5.93;;;-2.50;99.90;;;;;;7396593;19;20336;-79
2021/12/22 05:26:05;;;;;;;7.45;6.65;;;-2.60;99.90;;;;;;7394944;19;20373;-84
2021/12/22 05:28:56;;;;;;;6.85;6.15;;;-2.50;99.90;;;;;;7373170;19;20350;-78
2021/12/22 05:32:06;;;;;;;6.10;5.28;;;-2.40;99.90;;;;;;7392469;19;20701;-82
2021/12/22 06:12:02;;;;;;;8.82;6.93;;;-2.80;99.90;;;;;;7147659;19;2004418;-90
2021/12/22 06:15:23;;;;;;;7.18;6.18;;;-2.80;99.90;;;;;;7282768;19;2004441;-85
2021/12/22 06:24:46;;;;;;;7.82;6.75;;;-2.90;99.90;;;;;;7362160;19;20325;-81
2021/12/22 06:33:29;;;;;;;7.55;6.60;;;-3.00;99.90;;;;;;7385554;19;20316;-81
2021/12/22 06:35:54;;;;;;;8.73;7.28;;;-3.10;99.90;;;;;;7386963;19;20308;-79
2021/12/22 06:38:20;;;;;;;7.55;6.28;;;-3.10;99.90;;;;;;7388712;19;20366;-82
2021/12/22 06:40:59;;;;;;;9.88;6.97;;;-3.10;99.90;;;;;;7360657;19;20344;-82
2021/12/22 06:52:43;;;;;;;9.35;7.35;;;-3.10;99.90;;;;;;7385930;19;20320;-79
2021/12/22 06:56:01;;;;;;;9.80;7.72;;;-3.00;99.90;;;;;;7219754;19;2004010;-80
2021/12/22 06:58:45;;;;;;;7.80;7.00;;;-3.10;99.90;;;;;;7232891;19;2004218;-79
2021/12/22 07:01:23;;;;;;;8.00;6.93;;;-3.10;99.90;;;;;;7332471;19;20339;-80
2021/12/22 07:04:03;;;;;;;7.38;6.05;;;-3.10;99.90;;;;;;7307780;19;20329;-80
2021/12/22 07:09:53;;;;;;;8.65;6.57;;;-3.20;99.90;;;;;;7426277;19;20329;-79
2021/12/22 07:12:19;;;;;;;7.63;6.70;;;-3.20;99.90;;;;;;7394699;19;20309;-82
2021/12/22 07:20:51;;;;;;;9.25;6.72;;;-3.30;99.90;;;;;;7340551;19;20344;-80
2021/12/22 07:24:05;;;;;;;7.00;6.30;;;-3.30;99.90;;;;;;7353945;19;20320;-80
2021/12/22 07:37:08;;;;;;;9.73;8.02;;;-3.30;99.90;;;;;;7369235;19;20329;-86
2021/12/22 07:43:47;;;;;;;7.68;6.95;;;-3.40;99.90;;;;;;7254499;19;2003655;-83
2021/12/22 07:47:22;;;;;;;9.27;7.55;;;-3.30;99.90;;;;;;7289281;19;20324;-83
2021/12/22 07:57:03;;;;;;;9.55;7.03;;;-3.40;99.90;;;;;;7222372;19;2004427;-86
2021/12/22 07:59:54;;;;;;;9.00;6.75;;;-3.30;99.90;;;;;;7411683;19;20364;-80
2021/12/22 08:03:14;;;;;;;8.05;7.25;;;-3.20;99.90;;;;;;7409399;19;20337;-83
2021/12/22 08:06:33;;;;;;;7.80;7.00;;;-3.20;99.90;;;;;;7412029;19;20353;-86
2021/12/22 08:09:48;;;;;;;7.15;6.45;;;-3.20;99.90;;;;;;7416180;19;20359;-94
2021/12/22 08:16:46;;;;;;;9.07;5.97;;;-3.20;99.90;;;;;;7366559;19;20343;-84
2021/12/22 08:23:54;;;;;;;8.25;7.40;;;-3.00;99.90;;;;;;7397591;19;20339;-84
2021/12/22 08:38:53;;;;;;;8.95;6.82;;;-2.90;99.90;;;;;;7332863;19;20344;-78
2021/12/22 08:42:11;;;;;;;8.75;7.85;;;-3.10;99.90;;;;;;7265743;19;2004433;-81
2021/12/22 08:45:46;;;;;;;8.15;6.63;;;-2.80;99.90;;;;;;7297327;19;2004383;-85
2021/12/22 09:03:44;;;;;;;9.90;7.75;;;-2.60;99.90;;;;;;7391194;19;20345;-79
2021/12/22 09:15:57;;;;;;;7.80;7.00;;;-2.40;99.90;;;;;;7330539;19;20394;-87
2021/12/22 09:18:23;;;;;;;9.57;7.72;;;-2.30;99.90;;;;;;7391600;19;20692;-79
2021/12/22 09:20:51;;;;;;;8.45;7.60;;;-2.20;99.90;;;;;;7391273;19;20343;-83
2021/12/22 09:23:17;;;;;;;9.10;7.27;;;-2.30;99.90;;;;;;7395076;19;20328;-79
2021/12/22 09:25:42;;;;;;;9.83;8.47;;;-2.10;99.90;;;;;;7389244;19;20372;-78
2021/12/22 09:28:12;;;;;;;7.82;5.90;;;-2.30;99.90;;;;;;7388979;19;20327;-77
2021/12/22 09:45:15;;;;;;;8.20;6.35;;;-1.60;99.90;;;;;;7397952;19;20315;-79
2021/12/22 09:58:42;;;;;;;7.57;6.43;;;-1.20;99.90;;;;;;7398332;19;20357;-79
2021/12/22 10:02:13;;;;;;;6.43;5.82;;;-1.20;99.90;;;;;;7394589;19;20343;-79
2021/12/22 10:08:22;;;;;;;8.90;7.20;;;-1.00;99.90;;;;;;7395085;19;20360;-78
2021/12/22 10:11:36;;;;;;;8.20;7.30;;;-0.90;99.90;;;;;;7398486;19;20726;-78
2021/12/22 10:15:04;;;;;;;9.43;7.63;;;-0.80;99.90;;;;;;7397050;19;20421;-78
2021/12/22 10:18:22;;;;;;;9.63;8.30;;;-0.90;99.90;;;;;;7340328;19;20354;-78
2021/12/22 10:28:17;;;;;;;11.23;8.80;;;-0.60;99.90;;;;;;7390936;19;20320;-81
2021/12/22 10:30:43;;;;;;;11.05;8.75;;;-0.40;99.90;;;;;;7388750;19;20878;-81
2021/12/22 10:33:25;;;;;;;9.93;8.10;;;-0.40;99.90;;;;;;7391356;19;20313;-81
2021/12/22 10:36:00;;;;;;;10.77;8.40;;;-0.50;99.90;;;;;;7281779;19;2018442;-81
2021/12/22 10:38:28;;;;;;;10.32;8.45;;;-0.40;99.90;;;;;;7286252;19;2004352;-81
2021/12/22 10:40:55;;;;;;;8.70;7.03;;;-0.40;99.90;;;;;;7388292;19;20324;-79
2021/12/22 10:43:26;;;;;;;10.27;7.43;;;-0.30;99.90;;;;;;7367564;19;20355;-81
2021/12/22 10:45:55;;;;;;;10.60;8.68;;;-0.30;99.90;;;;;;7391736;19;20337;-81
2021/12/22 10:51:24;;;;;;;10.73;7.95;;;-0.10;99.90;;;;;;7304910;19;2008320;-81
2021/12/22 10:53:50;;;;;;;8.07;6.93;;;0.00;99.90;;;;;;7402173;19;20328;-81
2021/12/22 10:56:32;;;;;;;12.18;8.13;;;0.00;99.90;;;;;;7399520;19;20327;-82
2021/12/22 10:59:00;;;;;;;8.98;8.10;;;0.20;99.90;;;;;;7289398;19;2004425;-87
2021/12/22 11:01:26;;;;;;;9.75;7.40;;;0.20;99.90;;;;;;7392265;19;20338;-80
2021/12/22 11:04:01;;;;;;;8.60;7.70;;;0.30;99.90;;;;;;7390313;19;20372;-81
2021/12/22 11:06:55;;;;;;;10.13;7.57;;;0.30;99.90;;;;;;7390879;19;20316;-81
2021/12/22 11:09:22;;;;;;;6.97;6.18;;;0.30;99.90;;;;;;7288889;19;2004435;-82
2021/12/22 11:11:54;;;;;;;9.75;7.68;;;0.50;99.90;;;;;;7390355;19;20309;-81
2021/12/22 11:14:24;;;;;;;7.95;6.15;;;0.50;99.90;;;;;;7390309;19;20843;-81
2021/12/22 11:16:50;;;;;;;10.63;7.35;;;0.70;99.90;;;;;;7389907;19;20301;-85
2021/12/22 11:19:18;;;;;;;12.38;6.75;;;0.60;99.90;;;;;;7391586;19;20317;-81
2021/12/22 11:22:02;;;;;;;8.83;6.83;;;0.70;99.90;;;;;;7399745;19;20358;-83
2021/12/22 11:24:29;;;;;;;7.35;6.38;;;0.80;99.90;;;;;;7400538;19;20331;-84
2021/12/22 11:26:55;;;;;;;10.10;6.95;;;0.90;99.90;;;;;;7402318;19;20326;-83
2021/12/22 11:29:21;;;;;;;8.03;6.30;;;1.00;99.90;;;;;;7406013;19;20677;-82
2021/12/22 11:31:47;;;;;;;9.35;7.68;;;1.00;99.90;;;;;;7410863;19;20350;-82
2021/12/22 11:34:16;;;;;;;7.93;6.45;;;1.10;99.90;;;;;;7412664;19;20341;-83
2021/12/22 11:36:44;;;;;;;7.30;6.27;;;1.20;99.90;;;;;;7414153;19;20300;-81
2021/12/22 11:39:10;;;;;;;7.30;6.40;;;1.20;99.90;;;;;;7413443;19;20340;-83
2021/12/22 11:41:43;;;;;;;9.37;7.53;;;1.30;99.90;;;;;;7411236;19;20301;-83
2021/12/22 11:44:10;;;;;;;9.02;7.35;;;1.40;99.90;;;;;;7416374;19;20324;-87
2021/12/22 11:46:36;;;;;;;11.70;6.83;;;1.60;99.90;;;;;;7413408;19;20300;-81
2021/12/22 11:49:01;;;;;;;9.03;7.67;;;1.50;99.90;;;;;;7414844;19;20312;-83
2021/12/22 11:51:29;;;;;;;10.13;7.00;;;1.60;99.90;;;;;;7415225;19;20400;-83
2021/12/22 11:53:56;;;;;;;7.40;6.55;;;1.60;99.90;;;;;;7419051;19;20320;-83
2021/12/22 11:56:48;;;;;;;7.90;6.53;;;1.50;99.90;;;;;;7414855;19;20347;-81
2021/12/22 11:59:27;;;;;;;7.60;6.20;;;1.70;99.90;;;;;;7276673;19;2004417;-81
2021/12/22 12:02:31;;;;;;;7.13;6.13;;;1.90;99.90;;;;;;7297426;19;2004403;-84
2021/12/22 12:05:18;;;;;;;8.05;6.47;;;2.00;99.90;;;;;;7195945;19;2004564;-83
2021/12/22 12:07:49;;;;;;;7.78;6.55;;;2.10;99.90;;;;;;7296190;19;2004426;-84
2021/12/22 12:10:40;;;;;;;7.80;7.03;;;2.00;99.90;;;;;;7397456;19;20320;-84
2021/12/22 12:13:25;;;;;;;7.40;6.70;;;2.10;99.90;;;;;;7307867;19;2004538;-84
2021/12/22 12:22:09;;;;;;;10.93;7.80;;;2.20;99.90;;;;;;7398605;19;20304;-84
2021/12/22 12:24:44;;;;;;;8.25;6.07;;;2.10;99.90;;;;;;7294194;19;2004430;-84
2021/12/22 12:27:50;;;;;;;9.35;6.07;;;2.20;99.90;;;;;;7399162;19;20360;-81
2021/12/22 12:30:18;;;;;;;7.00;5.32;;;2.20;99.90;;;;;;7141522;19;2005093;-83
2021/12/22 12:32:50;;;;;;;6.03;5.22;;;2.20;99.90;;;;;;7396847;19;20340;-84
2021/12/22 12:35:19;;;;;;;5.18;4.63;;;2.40;99.90;;;;;;7399165;19;20882;-83
2021/12/22 12:38:06;;;;;;;6.22;4.57;;;2.40;99.90;;;;;;7401702;19;20376;-84
2021/12/22 12:41:06;;;;;;;5.35;4.85;;;2.30;99.90;;;;;;7397289;19;20877;-84
2021/12/22 12:43:44;;;;;;;5.20;4.38;;;2.20;99.90;;;;;;7298393;19;2004388;-82
2021/12/22 12:46:23;;;;;;;7.03;5.17;;;2.20;99.90;;;;;;7297034;19;2004459;-84
2021/12/22 12:51:34;;;;;;;5.13;4.63;;;2.10;99.90;;;;;;7394153;19;20365;-84
2021/12/22 12:54:07;;;;;;;6.67;5.20;;;1.90;99.90;;;;;;7396246;19;20336;-83
2021/12/22 12:56:41;;;;;;;5.23;4.10;;;1.90;99.90;;;;;;7399076;19;20318;-85
2021/12/22 12:59:12;;;;;;;4.57;4.10;;;1.90;99.90;;;;;;7302675;19;2004410;-84
2021/12/22 13:05:21;;;;;;;4.97;4.20;;;1.90;99.90;;;;;;7419639;19;20356;-84
2021/12/22 13:08:54;;;;;;;8.02;6.35;;;1.90;99.90;;;;;;7110904;19;2004400;-83
2021/12/22 13:12:16;;;;;;;6.75;5.72;;;1.80;99.90;;;;;;7346572;19;20359;-83
2021/12/22 13:17:48;;;;;;;5.97;5.38;;;2.00;99.90;;;;;;7382914;19;20948;-79
2021/12/22 13:20:16;;;;;;;5.07;4.57;;;2.00;99.90;;;;;;7389008;19;20313;-80
2021/12/22 13:22:45;;;;;;;4.57;4.18;;;2.00;99.90;;;;;;7393761;19;20308;-79
2021/12/22 13:25:23;;;;;;;5.40;4.90;;;2.10;99.90;;;;;;7392064;19;20379;-79
2021/12/22 13:27:51;;;;;;;6.40;4.85;;;1.90;99.90;;;;;;7393655;19;20379;-80
2021/12/22 13:30:19;;;;;;;4.70;4.28;;;1.90;99.90;;;;;;7391991;19;20331;-79
2021/12/22 13:33:04;;;;;;;5.85;5.25;;;1.90;99.90;;;;;;7396320;19;20396;-80
2021/12/22 13:35:31;;;;;;;6.13;5.18;;;1.80;99.90;;;;;;7283395;19;2004385;-79
2021/12/22 13:38:24;;;;;;;9.40;6.50;;;1.70;99.90;;;;;;7395069;19;20391;-79
2021/12/22 13:40:50;;;;;;;8.95;6.95;;;1.70;99.90;;;;;;7368644;19;20323;-79
2021/12/22 13:43:21;;;;;;;9.63;5.88;;;1.60;99.90;;;;;;7395387;19;20859;-80
2021/12/22 13:45:48;;;;;;;8.23;6.35;;;1.50;99.90;;;;;;7294638;19;2004436;-80
2021/12/22 13:48:21;;;;;;;7.20;6.40;;;1.40;99.90;;;;;;7396147;19;20320;-80
2021/12/22 13:50:48;;;;;;;8.40;6.20;;;1.40;99.90;;;;;;7397465;19;20323;-80
2021/12/22 13:53:14;;;;;;;7.15;6.13;;;1.40;99.90;;;;;;7399803;19;20428;-80
2021/12/22 13:55:40;;;;;;;9.75;6.90;;;1.40;99.90;;;;;;7398664;19;20353;-80
2021/12/22 13:58:34;;;;;;;8.90;6.72;;;1.30;99.90;;;;;;7400093;19;20313;-80
2021/12/22 14:01:32;;;;;;;8.25;6.47;;;1.20;99.90;;;;;;7396236;19;20660;-80
2021/12/22 14:04:04;;;;;;;6.63;5.13;;;1.10;99.90;;;;;;7285279;19;2009972;-79
2021/12/22 14:06:35;;;;;;;6.90;5.97;;;1.10;99.90;;;;;;7397752;19;20359;-80
2021/12/22 14:09:05;;;;;;;6.82;5.97;;;1.10;99.90;;;;;;7394702;19;20323;-80
2021/12/22 14:11:37;;;;;;;7.25;5.50;;;1.00;99.90;;;;;;7395246;19;20321;-79
2021/12/22 14:14:44;;;;;;;7.35;6.15;;;1.00;99.90;;;;;;7391445;19;20332;-79
2021/12/22 14:17:32;;;;;;;10.13;5.60;;;1.00;99.90;;;;;;7286284;19;2004377;-79
2021/12/22 14:20:25;;;;;;;10.90;6.47;;;1.00;99.90;;;;;;7281309;19;2004344;-79
2021/12/22 14:22:58;;;;;;;6.95;5.15;;;1.00;99.90;;;;;;7285038;19;2005446;-79
2021/12/22 14:25:25;;;;;;;6.00;5.40;;;1.00;99.90;;;;;;7385074;19;20317;-79
2021/12/22 14:27:53;;;;;;;5.70;4.90;;;1.00;99.90;;;;;;7386682;19;20323;-79
2021/12/22 14:30:32;;;;;;;4.88;4.45;;;1.00;99.90;;;;;;7384974;19;20329;-79
2021/12/22 14:33:20;;;;;;;5.50;3.73;;;1.00;99.90;;;;;;7389620;19;20342;-80
2021/12/22 14:36:00;;;;;;;6.80;5.00;;;1.10;99.90;;;;;;7384571;19;20365;-79
2021/12/22 14:38:28;;;;;;;6.15;5.15;;;1.10;99.90;;;;;;7286728;19;2004551;-81
2021/12/22 14:41:06;;;;;;;5.32;4.82;;;1.10;99.90;;;;;;7388095;19;20351;-79
2021/12/22 14:43:36;;;;;;;5.75;4.63;;;1.00;99.90;;;;;;7379643;19;20323;-79
2021/12/22 14:46:02;;;;;;;4.90;4.25;;;1.00;99.90;;;;;;7386469;19;20391;-79
2021/12/22 14:48:30;;;;;;;5.95;4.57;;;1.00;99.90;;;;;;7388329;19;20329;-79
2021/12/22 14:51:02;;;;;;;5.68;4.55;;;1.00;99.90;;;;;;7385088;19;20396;-79
2021/12/22 14:53:37;;;;;;;5.30;4.53;;;1.00;99.90;;;;;;7387686;19;20479;-81
2021/12/22 14:56:05;;;;;;;5.13;4.65;;;1.00;99.90;;;;;;7385616;19;20689;-78
2021/12/22 14:58:31;;;;;;;5.90;5.30;;;1.00;99.90;;;;;;7385574;19;20404;-80
2021/12/22 15:00:57;;;;;;;5.43;4.82;;;1.00;99.90;;;;;;7386874;19;20325;-79
2021/12/22 15:03:23;;;;;;;5.57;5.07;;;1.00;99.90;;;;;;7379068;19;20335;-79
2021/12/22 15:06:03;;;;;;;5.97;5.30;;;1.10;99.90;;;;;;7393874;19;20908;-78
2021/12/22 15:08:33;;;;;;;5.00;4.57;;;0.90;99.90;;;;;;7393478;19;21135;-79
2021/12/22 15:11:00;;;;;;;5.10;4.57;;;0.90;99.90;;;;;;7396714;19;20297;-78
2021/12/22 15:13:26;;;;;;;5.65;4.72;;;0.80;99.90;;;;;;7387116;19;20332;-79
2021/12/22 15:15:51;;;;;;;5.25;4.72;;;0.80;99.90;;;;;;7393252;19;20940;-79
2021/12/22 15:18:18;;;;;;;5.67;4.93;;;0.70;99.90;;;;;;7395029;19;20328;-79
2021/12/22 15:20:43;;;;;;;5.05;4.55;;;0.70;99.90;;;;;;7392136;19;20702;-79
2021/12/22 15:23:13;;;;;;;4.75;4.35;;;0.60;99.90;;;;;;7395830;19;20304;-80
2021/12/22 15:25:40;;;;;;;5.77;4.77;;;0.60;99.90;;;;;;7393601;19;20332;-80
2021/12/22 15:28:07;;;;;;;4.80;4.43;;;0.50;99.90;;;;;;7374546;19;20344;-78
2021/12/22 15:30:34;;;;;;;5.38;4.05;;;0.50;99.90;;;;;;7389703;19;20324;-79
2021/12/22 15:33:06;;;;;;;4.90;4.40;;;0.40;99.90;;;;;;7393699;19;20367;-79
2021/12/22 15:52:32;;;;;;;5.32;4.82;;;-0.10;99.90;;;;;;7433063;19;20355;-80
2021/12/22 15:55:18;;;;;;;5.28;4.65;;;-0.20;99.90;;;;;;7402112;19;20331;-80
2021/12/22 19:44:40;;;;;;;7.95;7.15;;;-3.00;99.90;;;;;;7301202;19;20371;-80
2021/12/22 19:47:10;;;;;;;6.90;6.15;;;-2.90;99.90;;;;;;7400556;19;20333;-81
2021/12/22 19:49:40;;;;;;;9.90;6.60;;;-2.90;99.90;;;;;;7379554;19;20333;-79
2021/12/22 19:52:10;;;;;;;7.20;6.47;;;-2.90;99.90;;;;;;7373755;19;20317;-80
2021/12/22 19:54:36;;;;;;;6.95;5.93;;;-3.00;99.90;;;;;;7376774;19;20351;-80
2021/12/22 19:57:02;;;;;;;6.53;5.75;;;-3.00;99.90;;;;;;7394628;19;20655;-80
2021/12/22 19:59:28;;;;;;;7.55;6.13;;;-2.90;99.90;;;;;;7403198;19;20316;-81
2021/12/22 20:01:55;;;;;;;7.10;5.80;;;-3.00;99.90;;;;;;7389459;19;20327;-79
2021/12/22 20:04:21;;;;;;;8.55;6.40;;;-3.00;99.90;;;;;;7397614;19;20332;-79
2021/12/22 20:06:48;;;;;;;6.73;6.07;;;-2.90;99.90;;;;;;7374444;19;20326;-79
2021/12/22 20:09:22;;;;;;;9.05;6.70;;;-3.00;99.90;;;;;;7310177;19;20323;-79
2021/12/22 20:11:47;;;;;;;6.93;6.00;;;-3.00;99.90;;;;;;7390179;19;20312;-79
2021/12/22 20:14:29;;;;;;;7.57;5.97;;;-3.10;99.90;;;;;;7398772;19;20412;-81
2021/12/22 20:17:08;;;;;;;7.25;5.40;;;-3.20;99.90;;;;;;7304188;19;2004389;-87
2021/12/22 20:19:38;;;;;;;6.70;5.63;;;-3.00;99.90;;;;;;7415175;19;20411;-81
2021/12/22 20:22:13;;;;;;;8.25;6.13;;;-3.20;99.90;;;;;;7415178;19;21033;-88
2021/12/22 20:25:08;;;;;;;9.07;7.35;;;-3.10;99.90;;;;;;7411807;19;20328;-85
2021/12/22 20:27:35;;;;;;;7.27;5.93;;;-3.10;99.90;;;;;;7311662;19;2004432;-83
2021/12/22 20:30:10;;;;;;;6.88;5.53;;;-3.10;99.90;;;;;;7401493;19;20316;-87
2021/12/22 20:32:40;;;;;;;8.35;6.85;;;-3.20;99.90;;;;;;7388995;19;20379;-82
2021/12/22 20:35:38;;;;;;;8.77;7.97;;;-3.20;99.90;;;;;;7367636;19;20329;-85
2021/12/22 20:38:42;;;;;;;7.25;6.30;;;-3.20;99.90;;;;;;7296173;19;2004444;-82
2021/12/22 20:41:44;;;;;;;7.40;6.18;;;-3.20;99.90;;;;;;7412108;19;20368;-83
2021/12/22 20:44:25;;;;;;;7.80;6.18;;;-3.20;99.90;;;;;;7288181;19;2004569;-82
2021/12/22 20:46:54;;;;;;;6.43;5.83;;;-3.20;99.90;;;;;;7385203;19;20309;-82
2021/12/22 20:49:26;;;;;;;6.70;6.07;;;-3.20;99.90;;;;;;7382156;19;20308;-81
2021/12/22 20:52:24;;;;;;;7.50;6.18;;;-3.30;99.90;;;;;;7386686;19;20312;-85
2021/12/22 20:55:12;;;;;;;7.20;6.50;;;-3.30;99.90;;;;;;7368316;19;20335;-83
2021/12/22 20:58:19;;;;;;;7.18;6.10;;;-3.20;99.90;;;;;;7408861;19;20359;-86
2021/12/22 21:01:17;;;;;;;5.97;5.38;;;-3.30;99.90;;;;;;7305124;19;2004256;-80
2021/12/22 21:04:59;;;;;;;7.40;6.25;;;-3.30;99.90;;;;;;7198126;19;2004186;-85
2021/12/22 21:07:45;;;;;;;7.07;5.73;;;-3.30;99.90;;;;;;7388478;19;20320;-89
2021/12/22 21:11:19;;;;;;;8.52;7.53;;;-3.30;99.90;;;;;;7268370;19;2004282;-91
2021/12/22 21:14:22;;;;;;;11.45;6.90;;;-3.20;99.90;;;;;;7356384;19;20336;-85
2021/12/22 21:17:24;;;;;;;8.07;7.28;;;-3.30;99.90;;;;;;7406398;19;20881;-82
2021/12/22 21:20:27;;;;;;;6.60;6.00;;;-3.30;99.90;;;;;;7175188;19;2004249;-81
2021/12/22 21:23:49;;;;;;;7.28;6.57;;;-3.40;99.90;;;;;;7271120;19;2004418;-82
2021/12/22 21:26:32;;;;;;;7.35;6.63;;;-3.40;99.90;;;;;;7237323;19;2004380;-84
2021/12/22 21:29:03;;;;;;;8.30;6.60;;;-3.40;99.90;;;;;;7389788;19;20352;-81
2021/12/22 21:31:46;;;;;;;6.57;5.90;;;-3.30;99.90;;;;;;7344820;19;20324;-84
2021/12/22 21:34:16;;;;;;;5.88;5.28;;;-3.40;99.90;;;;;;7407490;19;20309;-90
2021/12/22 21:37:00;;;;;;;8.35;6.85;;;-3.40;99.90;;;;;;7388778;19;20300;-83
2021/12/22 22:11:51;;;;;;;8.95;7.15;;;-3.70;99.90;;;;;;7393658;19;20683;-80
2021/12/22 22:14:17;;;;;;;6.25;5.75;;;-3.60;99.90;;;;;;7371453;19;20332;-80
2021/12/22 22:16:44;;;;;;;7.93;6.80;;;-3.60;99.90;;;;;;7390240;19;20328;-79
2021/12/22 22:19:20;;;;;;;7.27;6.43;;;-3.70;99.90;;;;;;7390159;19;20400;-80
2021/12/22 22:21:54;;;;;;;6.83;5.20;;;-3.70;99.90;;;;;;7388878;19;20332;-80
2021/12/22 22:24:26;;;;;;;7.05;4.78;;;-3.70;99.90;;;;;;7375231;19;20356;-80
2021/12/22 22:26:57;;;;;;;7.38;5.93;;;-3.70;99.90;;;;;;7383180;19;20316;-79
2021/12/22 22:29:24;;;;;;;8.15;6.53;;;-3.50;99.90;;;;;;7345948;19;20421;-79
2021/12/22 22:31:51;;;;;;;8.10;6.85;;;-3.70;99.90;;;;;;7367416;19;20316;-79
2021/12/22 22:34:17;;;;;;;9.40;7.03;;;-3.70;99.90;;;;;;7385951;19;20347;-79
2021/12/22 22:36:45;;;;;;;6.57;5.82;;;-3.60;99.90;;;;;;7387317;19;20327;-78